Time;durP1;ratioP1;P1;durP2;ratioP2;P2;SDS_P1;SDS_P2;PMS_P1;PMS_P2;Temp;Humidity;BMP_temperature;BMP_pressure;BME280_temperature;BME280_humidity;BME280_pressure;Samples;Min_cycle;Max_cycle;Signal;HPM_P1;HPM_P2
2022/03/15 00:01:02;;;;;;;18.95;9.07;;;4.40;99.90;;;;;;5035702;28;20114;-76
2022/03/15 00:03:28;;;;;;;23.67;9.40;;;4.30;99.90;;;;;;5035665;28;20060;-76
2022/03/15 00:05:54;;;;;;;18.73;9.05;;;4.30;99.90;;;;;;5035616;28;20041;-76
2022/03/15 00:08:19;;;;;;;18.48;9.05;;;4.30;99.90;;;;;;5035604;28;20081;-76
2022/03/15 00:10:47;;;;;;;22.05;9.02;;;4.30;99.90;;;;;;5035479;28;20124;-76
2022/03/15 00:13:13;;;;;;;16.58;8.02;;;4.20;99.90;;;;;;5035521;28;20041;-76
2022/03/15 00:15:41;;;;;;;14.80;7.65;;;4.10;99.90;;;;;;5035429;28;20061;-76
2022/03/15 00:18:07;;;;;;;17.55;8.52;;;4.20;99.90;;;;;;5035363;28;20056;-76
2022/03/15 00:20:33;;;;;;;15.00;7.75;;;4.10;99.90;;;;;;5035177;28;20413;-75
2022/03/15 00:23:00;;;;;;;24.10;9.13;;;4.10;99.90;;;;;;5016819;28;20050;-76
2022/03/15 00:25:26;;;;;;;18.85;7.88;;;4.10;99.90;;;;;;5034989;28;20084;-76
2022/03/15 00:27:52;;;;;;;16.23;7.95;;;4.10;99.90;;;;;;5034859;28;20057;-76
2022/03/15 00:30:20;;;;;;;17.98;8.18;;;4.10;99.90;;;;;;5017330;28;20079;-76
2022/03/15 00:32:47;;;;;;;15.57;7.60;;;4.00;99.90;;;;;;5035006;28;20440;-76
2022/03/15 00:35:19;;;;;;;14.60;7.53;;;3.90;99.90;;;;;;5035057;28;20064;-76
2022/03/15 00:37:46;;;;;;;17.30;7.85;;;3.90;99.90;;;;;;5017488;28;20426;-76
2022/03/15 00:40:13;;;;;;;15.77;8.20;;;3.90;99.90;;;;;;5035004;28;20045;-76
2022/03/15 00:42:39;;;;;;;17.92;9.23;;;3.90;99.90;;;;;;5034874;28;20042;-76
2022/03/15 00:45:06;;;;;;;20.73;8.38;;;3.90;99.90;;;;;;5035175;28;20091;-76
2022/03/15 00:47:32;;;;;;;15.43;8.32;;;3.80;99.90;;;;;;5034745;28;20049;-76
2022/03/15 00:49:58;;;;;;;14.98;8.20;;;3.80;99.90;;;;;;5034688;28;20037;-75
2022/03/15 00:52:24;;;;;;;17.65;8.10;;;3.80;99.90;;;;;;5034632;28;20468;-76
2022/03/15 00:54:49;;;;;;;16.35;8.55;;;3.80;99.90;;;;;;5034679;28;20042;-76
2022/03/15 00:57:15;;;;;;;19.58;9.55;;;3.80;99.90;;;;;;5017102;28;20047;-76
2022/03/15 00:59:41;;;;;;;18.17;8.43;;;3.80;99.90;;;;;;5034913;28;20037;-76
2022/03/15 01:02:07;;;;;;;15.60;8.77;;;3.80;99.90;;;;;;5034649;28;20420;-76
2022/03/15 01:04:32;;;;;;;15.65;8.00;;;3.70;99.90;;;;;;5034513;28;20080;-76
2022/03/15 01:06:58;;;;;;;16.30;8.32;;;3.70;99.90;;;;;;5034436;28;20129;-76
2022/03/15 01:09:23;;;;;;;13.00;8.77;;;3.70;99.90;;;;;;5034458;28;20061;-76
2022/03/15 01:11:49;;;;;;;24.98;11.30;;;3.60;99.90;;;;;;5034403;28;20099;-75
2022/03/15 01:14:15;;;;;;;20.35;9.80;;;3.70;99.90;;;;;;5034356;28;20037;-75
2022/03/15 01:16:41;;;;;;;25.45;12.00;;;3.70;99.90;;;;;;5034251;28;20045;-76
2022/03/15 01:19:08;;;;;;;24.40;10.40;;;3.70;99.90;;;;;;5034100;28;20033;-76
2022/03/15 01:21:37;;;;;;;23.92;11.05;;;3.80;99.90;;;;;;5034134;28;20042;-76
2022/03/15 01:24:08;;;;;;;23.58;13.25;;;3.80;99.90;;;;;;5034202;28;20087;-76
2022/03/15 01:26:34;;;;;;;25.40;12.27;;;3.80;99.90;;;;;;5034154;28;20049;-76
2022/03/15 01:29:03;;;;;;;30.35;14.80;;;3.90;99.90;;;;;;5033813;28;20136;-76
2022/03/15 01:31:28;;;;;;;26.80;15.00;;;3.90;99.90;;;;;;5034072;28;20041;-76
2022/03/15 01:33:54;;;;;;;23.35;13.43;;;3.90;99.90;;;;;;5016639;28;20053;-76
2022/03/15 01:36:20;;;;;;;23.05;13.73;;;3.90;99.90;;;;;;5033769;28;20397;-76
2022/03/15 01:38:46;;;;;;;25.50;13.25;;;3.90;99.90;;;;;;5033995;28;20498;-76
2022/03/15 01:41:12;;;;;;;21.38;13.15;;;3.90;99.90;;;;;;5016139;28;20045;-76
2022/03/15 01:43:40;;;;;;;23.00;12.90;;;3.80;99.90;;;;;;5033921;28;20119;-76
2022/03/15 01:46:06;;;;;;;36.10;14.25;;;3.80;99.90;;;;;;5033883;28;20112;-76
2022/03/15 01:48:32;;;;;;;24.13;13.23;;;3.80;99.90;;;;;;5033685;28;20044;-76
2022/03/15 01:50:58;;;;;;;26.58;14.15;;;3.80;99.90;;;;;;5033574;28;20472;-76
2022/03/15 01:53:24;;;;;;;28.33;15.25;;;3.70;99.90;;;;;;5033616;28;20057;-76
2022/03/15 01:55:50;;;;;;;23.05;13.60;;;3.70;99.90;;;;;;5033650;28;20045;-76
2022/03/15 01:58:16;;;;;;;24.35;13.57;;;3.70;99.90;;;;;;5033699;28;20049;-76
2022/03/15 02:00:42;;;;;;;22.88;14.50;;;3.60;99.90;;;;;;5015956;28;20033;-76
2022/03/15 02:03:07;;;;;;;22.60;14.82;;;3.60;99.90;;;;;;5033517;28;20046;-76
2022/03/15 02:05:33;;;;;;;23.75;14.68;;;3.50;99.90;;;;;;5033422;28;20369;-76
2022/03/15 02:08:13;;;;;;;31.08;16.40;;;3.60;99.90;;;;;;5016045;28;20441;-76
2022/03/15 02:10:40;;;;;;;28.10;15.48;;;3.70;99.90;;;;;;5033624;28;20092;-76
2022/03/15 02:13:07;;;;;;;27.08;16.42;;;3.70;99.90;;;;;;5033612;28;20060;-76
2022/03/15 02:15:32;;;;;;;31.42;17.00;;;3.70;99.90;;;;;;5033462;28;20124;-76
2022/03/15 02:17:58;;;;;;;24.77;16.15;;;3.70;99.90;;;;;;5033547;28;20188;-76
2022/03/15 02:20:24;;;;;;;27.77;16.00;;;3.70;99.90;;;;;;5033415;28;20042;-76
2022/03/15 02:22:50;;;;;;;27.15;15.77;;;3.80;99.90;;;;;;5033429;28;20046;-76
2022/03/15 02:25:16;;;;;;;26.27;16.65;;;3.80;99.90;;;;;;5033307;28;20048;-76
2022/03/15 02:27:42;;;;;;;28.92;16.40;;;3.80;99.90;;;;;;5033362;28;20080;-80
2022/03/15 02:30:09;;;;;;;27.45;16.85;;;3.80;99.90;;;;;;5033415;28;20045;-76
2022/03/15 02:32:35;;;;;;;26.17;15.68;;;3.80;99.90;;;;;;5033482;28;20041;-76
2022/03/15 02:35:01;;;;;;;29.40;16.33;;;3.80;99.90;;;;;;5033259;28;20395;-76
2022/03/15 02:37:27;;;;;;;23.17;17.40;;;3.90;99.90;;;;;;5033382;28;20124;-76
2022/03/15 02:39:53;;;;;;;25.73;15.25;;;3.90;99.90;;;;;;5015832;28;20169;-76
2022/03/15 02:42:19;;;;;;;28.13;15.25;;;3.90;99.90;;;;;;5033117;28;20049;-76
2022/03/15 02:44:45;;;;;;;31.73;15.98;;;3.90;99.90;;;;;;5033188;28;20034;-76
2022/03/15 02:47:11;;;;;;;32.60;16.42;;;3.90;99.90;;;;;;5034582;28;20103;-76
2022/03/15 02:49:37;;;;;;;32.03;16.92;;;4.00;99.90;;;;;;5036866;28;20476;-76
2022/03/15 02:52:03;;;;;;;33.95;17.45;;;4.10;99.90;;;;;;5037238;28;20058;-76
2022/03/15 02:54:29;;;;;;;32.90;18.95;;;4.20;99.90;;;;;;5019257;28;20369;-76
2022/03/15 02:56:55;;;;;;;28.25;17.58;;;4.20;99.90;;;;;;5037299;28;20051;-76
2022/03/15 02:59:21;;;;;;;31.80;17.92;;;4.30;99.90;;;;;;5036825;28;20068;-76
2022/03/15 03:01:48;;;;;;;33.25;18.35;;;4.30;99.90;;;;;;5036707;28;20045;-76
2022/03/15 03:04:15;;;;;;;31.17;16.90;;;4.30;99.90;;;;;;5036803;28;20042;-76
2022/03/15 03:06:42;;;;;;;34.83;18.58;;;4.40;99.90;;;;;;5036733;28;20045;-76
2022/03/15 03:09:08;;;;;;;31.33;17.10;;;4.40;99.90;;;;;;5036634;28;20492;-76
2022/03/15 03:11:34;;;;;;;28.00;16.73;;;4.40;99.90;;;;;;5036600;28;20552;-76
2022/03/15 03:14:00;;;;;;;27.63;15.73;;;4.40;99.90;;;;;;5036616;28;20120;-76
2022/03/15 03:16:26;;;;;;;29.45;16.45;;;4.40;99.90;;;;;;5036364;28;20503;-76
2022/03/15 03:18:58;;;;;;;32.63;16.33;;;4.40;99.90;;;;;;5036523;28;20046;-76
2022/03/15 03:21:25;;;;;;;28.45;15.13;;;4.40;99.90;;;;;;5036441;28;20045;-76
2022/03/15 03:23:53;;;;;;;26.70;15.25;;;4.40;99.90;;;;;;5036414;28;20052;-76
2022/03/15 03:26:21;;;;;;;28.00;16.13;;;4.40;99.90;;;;;;5036345;28;20045;-76
2022/03/15 03:28:47;;;;;;;26.33;16.23;;;4.40;99.90;;;;;;5036146;28;20129;-76
2022/03/15 03:31:14;;;;;;;28.85;17.77;;;4.50;99.90;;;;;;5018807;28;20136;-76
2022/03/15 03:33:40;;;;;;;28.52;17.50;;;4.50;99.90;;;;;;5018486;28;20049;-76
2022/03/15 03:36:06;;;;;;;30.38;16.25;;;4.50;99.90;;;;;;5036052;28;20100;-76
2022/03/15 03:38:32;;;;;;;29.13;16.55;;;4.50;99.90;;;;;;5036256;28;20476;-76
2022/03/15 03:40:58;;;;;;;35.15;18.20;;;4.60;99.90;;;;;;5018315;28;20059;-76
2022/03/15 03:43:24;;;;;;;33.08;17.30;;;4.70;99.90;;;;;;5036130;28;20045;-76
2022/03/15 03:45:49;;;;;;;27.83;17.30;;;4.70;99.90;;;;;;5036059;28;20042;-76
2022/03/15 03:48:15;;;;;;;31.73;18.00;;;4.70;99.90;;;;;;5035979;28;20052;-76
2022/03/15 03:50:42;;;;;;;26.98;16.23;;;4.80;99.90;;;;;;5018462;28;20046;-76
2022/03/15 03:53:09;;;;;;;35.28;17.02;;;4.80;99.90;;;;;;5035877;28;20076;-76
2022/03/15 03:55:36;;;;;;;26.58;17.30;;;4.80;99.90;;;;;;5035796;28;20068;-76
2022/03/15 03:58:02;;;;;;;27.42;15.98;;;4.80;99.90;;;;;;5035971;28;20077;-76
2022/03/15 04:00:28;;;;;;;25.63;15.05;;;4.80;99.90;;;;;;5035740;28;20041;-76
2022/03/15 04:02:58;;;;;;;31.45;16.42;;;4.80;99.90;;;;;;5017867;28;20459;-76
2022/03/15 04:05:27;;;;;;;30.40;17.67;;;4.80;99.90;;;;;;5035637;28;20045;-77
2022/03/15 04:07:54;;;;;;;29.15;15.77;;;4.80;99.90;;;;;;5035596;28;20165;-76
2022/03/15 04:10:21;;;;;;;27.85;15.38;;;4.80;99.90;;;;;;5017648;28;20053;-76
2022/03/15 04:12:47;;;;;;;25.55;16.58;;;4.80;99.90;;;;;;5035305;28;20502;-76
2022/03/15 04:15:13;;;;;;;27.58;16.42;;;4.80;99.90;;;;;;5035272;28;20563;-76
2022/03/15 04:17:39;;;;;;;30.58;16.17;;;4.80;99.90;;;;;;5035437;28;20171;-76
2022/03/15 04:20:06;;;;;;;26.90;15.18;;;4.80;99.90;;;;;;5035120;28;20404;-76
2022/03/15 04:22:32;;;;;;;32.13;16.30;;;4.80;99.90;;;;;;5035305;28;20245;-76
2022/03/15 04:24:57;;;;;;;32.78;17.13;;;4.80;99.90;;;;;;5035002;28;20120;-76
2022/03/15 04:27:23;;;;;;;26.13;15.25;;;4.80;99.90;;;;;;5035306;28;20454;-76
2022/03/15 04:29:49;;;;;;;26.58;13.85;;;4.80;99.90;;;;;;5034934;28;20056;-76
2022/03/15 04:32:15;;;;;;;23.25;14.52;;;4.80;99.90;;;;;;5035142;28;20049;-76
2022/03/15 04:34:41;;;;;;;23.17;13.63;;;4.70;99.90;;;;;;5034985;28;20041;-76
2022/03/15 04:37:06;;;;;;;27.95;15.20;;;4.80;99.90;;;;;;5035072;28;20045;-76
2022/03/15 04:39:33;;;;;;;27.63;15.25;;;4.70;99.90;;;;;;5035072;28;20047;-76
2022/03/15 04:41:59;;;;;;;22.40;13.80;;;4.70;99.90;;;;;;5034912;28;20045;-76
2022/03/15 04:44:24;;;;;;;25.70;14.88;;;4.70;99.90;;;;;;5034888;28;20041;-76
2022/03/15 04:46:50;;;;;;;25.67;15.77;;;4.70;99.90;;;;;;5034949;28;20132;-76
2022/03/15 04:49:16;;;;;;;24.17;14.38;;;4.70;99.90;;;;;;5034721;28;20077;-76
2022/03/15 04:51:42;;;;;;;30.17;14.43;;;4.70;99.90;;;;;;5016947;28;20121;-76
2022/03/15 04:54:07;;;;;;;26.85;15.70;;;4.70;99.90;;;;;;5034691;28;20051;-76
2022/03/15 04:56:34;;;;;;;24.30;14.52;;;4.80;99.90;;;;;;5016858;28;20060;-76
2022/03/15 04:59:00;;;;;;;24.27;14.65;;;4.70;99.90;;;;;;5034647;28;20045;-77
2022/03/15 05:01:26;;;;;;;25.08;14.65;;;4.70;99.90;;;;;;5034462;28;20043;-76
2022/03/15 05:03:51;;;;;;;26.85;17.42;;;4.70;99.90;;;;;;5034518;28;20049;-76
2022/03/15 05:06:17;;;;;;;25.60;16.33;;;4.70;99.90;;;;;;5016755;28;20439;-76
2022/03/15 05:08:42;;;;;;;26.45;15.40;;;4.70;99.90;;;;;;5034202;28;20132;-76
2022/03/15 05:11:08;;;;;;;25.75;15.13;;;4.70;99.90;;;;;;5033981;28;20037;-76
2022/03/15 05:13:37;;;;;;;25.85;15.70;;;4.70;99.90;;;;;;5034339;28;20053;-76
2022/03/15 05:16:03;;;;;;;31.65;15.63;;;4.70;99.90;;;;;;5016549;28;20507;-76
2022/03/15 05:18:29;;;;;;;27.25;16.00;;;4.70;99.90;;;;;;5033942;28;20553;-76
2022/03/15 05:20:55;;;;;;;26.33;14.80;;;4.70;99.90;;;;;;5016536;28;20042;-79
2022/03/15 05:23:21;;;;;;;25.88;15.30;;;4.80;99.90;;;;;;5034065;28;20476;-81
2022/03/15 05:25:46;;;;;;;23.92;15.40;;;4.70;99.90;;;;;;5034087;28;20057;-77
2022/03/15 05:28:12;;;;;;;24.65;16.08;;;4.80;99.90;;;;;;5033797;28;20049;-77
2022/03/15 05:30:39;;;;;;;27.38;16.77;;;4.70;99.90;;;;;;5034147;28;20145;-76
2022/03/15 05:33:05;;;;;;;38.35;15.32;;;4.80;99.90;;;;;;5033999;28;20037;-76
2022/03/15 05:35:31;;;;;;;27.42;16.42;;;4.80;99.90;;;;;;5016240;28;20374;-76
2022/03/15 05:37:56;;;;;;;25.20;16.27;;;4.80;99.90;;;;;;5033708;28;20097;-76
2022/03/15 05:40:22;;;;;;;27.80;15.82;;;4.80;99.90;;;;;;5033925;28;20038;-76
2022/03/15 05:42:48;;;;;;;29.95;15.50;;;4.80;99.90;;;;;;5033693;28;20046;-76
2022/03/15 05:45:13;;;;;;;32.15;17.27;;;4.80;99.90;;;;;;5033768;28;20481;-77
2022/03/15 05:47:39;;;;;;;39.60;21.65;;;4.80;99.90;;;;;;5033557;28;20437;-77
2022/03/15 05:50:06;;;;;;;36.33;20.92;;;4.80;99.90;;;;;;5033347;28;20045;-77
2022/03/15 05:52:31;;;;;;;45.78;25.10;;;4.80;99.90;;;;;;5033104;28;20049;-77
2022/03/15 05:54:57;;;;;;;45.78;25.02;;;4.80;99.90;;;;;;5032235;28;20049;-77
2022/03/15 05:57:23;;;;;;;45.47;26.80;;;4.80;99.90;;;;;;5015075;28;20075;-77
2022/03/15 05:59:49;;;;;;;39.83;25.92;;;4.80;99.90;;;;;;5033443;28;20049;-77
2022/03/15 06:02:15;;;;;;;45.28;26.70;;;4.80;99.90;;;;;;5015456;28;20499;-77
2022/03/15 06:04:41;;;;;;;43.10;28.05;;;4.80;99.90;;;;;;5015573;28;20092;-77
2022/03/15 06:07:06;;;;;;;37.95;23.92;;;4.80;99.90;;;;;;5015659;28;20171;-77
2022/03/15 06:09:32;;;;;;;33.92;22.08;;;4.90;99.90;;;;;;5015541;28;20084;-76
2022/03/15 06:11:58;;;;;;;30.27;20.80;;;4.90;99.90;;;;;;5033428;28;20123;-77
2022/03/15 06:14:24;;;;;;;40.92;21.90;;;4.90;99.90;;;;;;5033368;28;20080;-77
2022/03/15 06:16:50;;;;;;;31.55;19.67;;;4.90;99.90;;;;;;5033510;28;20079;-77
2022/03/15 06:19:15;;;;;;;31.38;18.02;;;4.90;99.90;;;;;;5033345;28;20052;-77
2022/03/15 06:21:42;;;;;;;29.92;17.90;;;5.00;99.90;;;;;;5033915;28;20046;-76
2022/03/15 06:24:08;;;;;;;32.25;18.15;;;5.00;99.90;;;;;;5019745;28;20120;-76
2022/03/15 06:26:38;;;;;;;28.77;17.55;;;5.00;99.90;;;;;;5037465;28;20037;-76
2022/03/15 06:29:05;;;;;;;31.33;17.80;;;5.00;99.90;;;;;;5037140;28;20053;-76
2022/03/15 06:31:32;;;;;;;32.97;17.85;;;5.10;99.90;;;;;;5019415;28;20057;-77
2022/03/15 06:33:58;;;;;;;31.90;18.10;;;5.10;99.90;;;;;;5036978;28;20041;-76
2022/03/15 06:36:24;;;;;;;32.28;17.58;;;5.20;99.90;;;;;;5037332;28;20049;-76
2022/03/15 06:38:49;;;;;;;31.27;18.15;;;5.20;99.90;;;;;;5037131;28;20061;-76
2022/03/15 06:41:16;;;;;;;31.02;19.13;;;5.20;99.90;;;;;;5019536;28;20099;-77
2022/03/15 06:43:42;;;;;;;31.17;18.10;;;5.30;99.90;;;;;;5037205;28;20050;-76
2022/03/15 06:46:08;;;;;;;34.72;18.75;;;5.30;99.90;;;;;;5036830;28;20044;-77
2022/03/15 06:48:35;;;;;;;33.42;17.88;;;5.30;99.90;;;;;;5037014;28;20049;-77
2022/03/15 06:51:00;;;;;;;36.00;19.58;;;5.30;99.90;;;;;;5037044;28;20041;-77
2022/03/15 06:53:26;;;;;;;35.17;19.75;;;5.40;99.90;;;;;;5036749;28;20045;-77
2022/03/15 06:55:52;;;;;;;33.05;19.60;;;5.40;99.90;;;;;;5036933;28;20045;-76
2022/03/15 06:58:17;;;;;;;35.95;19.73;;;5.40;99.90;;;;;;5036491;28;20048;-77
2022/03/15 07:00:44;;;;;;;31.75;18.67;;;5.40;99.90;;;;;;5018792;28;20056;-77
2022/03/15 07:03:10;;;;;;;34.28;19.05;;;5.40;99.90;;;;;;5036355;28;20095;-77
2022/03/15 07:05:36;;;;;;;39.72;21.08;;;5.50;99.90;;;;;;5018823;28;20053;-77
2022/03/15 07:08:02;;;;;;;37.55;21.67;;;5.50;99.90;;;;;;5036643;28;20087;-77
2022/03/15 07:10:28;;;;;;;39.50;20.30;;;5.50;99.90;;;;;;5036640;28;20073;-77
2022/03/15 07:12:54;;;;;;;40.45;22.92;;;5.60;99.90;;;;;;5036460;28;20049;-77
2022/03/15 07:15:21;;;;;;;35.42;19.38;;;5.60;99.90;;;;;;5036608;28;20045;-76
2022/03/15 07:17:54;;;;;;;35.08;21.48;;;5.60;99.90;;;;;;5036424;28;20047;-77
2022/03/15 07:20:20;;;;;;;37.92;22.02;;;5.60;99.90;;;;;;5036741;28;20049;-77
2022/03/15 07:22:47;;;;;;;41.75;24.02;;;5.70;99.90;;;;;;5036357;28;20053;-76
2022/03/15 07:25:13;;;;;;;39.78;22.02;;;5.70;99.90;;;;;;5036090;28;20497;-76
2022/03/15 07:27:39;;;;;;;39.38;21.73;;;5.70;99.90;;;;;;5036316;28;20030;-77
2022/03/15 07:30:06;;;;;;;38.97;21.75;;;5.80;99.90;;;;;;5035800;28;20492;-77
2022/03/15 07:32:32;;;;;;;36.13;20.63;;;5.90;99.90;;;;;;5035741;28;20053;-76
2022/03/15 07:34:57;;;;;;;34.13;19.30;;;6.00;99.90;;;;;;5018208;28;20045;-76
2022/03/15 07:37:23;;;;;;;31.60;20.25;;;6.00;99.90;;;;;;5036010;28;20107;-77
2022/03/15 07:39:49;;;;;;;33.90;18.65;;;6.10;99.90;;;;;;5036024;28;20129;-76
2022/03/15 07:42:14;;;;;;;35.90;19.73;;;6.20;99.90;;;;;;5035790;28;20462;-77
2022/03/15 07:44:44;;;;;;;31.65;19.27;;;6.30;99.90;;;;;;5018409;28;20077;-78
2022/03/15 07:47:10;;;;;;;38.60;20.15;;;6.30;99.90;;;;;;5035950;28;20037;-77
2022/03/15 07:49:36;;;;;;;38.40;19.55;;;6.40;99.90;;;;;;5035973;28;20545;-77
2022/03/15 07:52:02;;;;;;;29.67;19.83;;;6.50;99.90;;;;;;5035802;28;20046;-78
2022/03/15 07:54:28;;;;;;;32.30;19.17;;;6.60;99.90;;;;;;5035644;28;20046;-77
2022/03/15 07:56:54;;;;;;;34.78;20.38;;;6.70;99.90;;;;;;5035856;28;20048;-78
2022/03/15 07:59:19;;;;;;;31.70;18.50;;;6.80;99.90;;;;;;5017710;28;20401;-78
2022/03/15 08:01:45;;;;;;;30.42;18.52;;;6.80;99.90;;;;;;5035682;28;20041;-77
2022/03/15 08:04:11;;;;;;;32.20;18.08;;;6.90;99.90;;;;;;4996344;28;20041;-77
2022/03/15 08:06:36;;;;;;;30.70;18.70;;;7.00;99.90;;;;;;4998716;28;20096;-77
2022/03/15 08:09:03;;;;;;;34.97;18.73;;;7.00;99.90;;;;;;4995930;28;20039;-77
2022/03/15 08:11:30;;;;;;;28.75;17.63;;;7.10;99.90;;;;;;4995715;28;20568;-77
2022/03/15 08:13:56;;;;;;;32.17;18.70;;;7.10;99.90;;;;;;4995700;28;20088;-77
2022/03/15 08:16:22;;;;;;;31.48;17.77;;;7.20;99.90;;;;;;4995570;28;20043;-78
2022/03/15 08:18:49;;;;;;;29.20;17.65;;;7.20;99.90;;;;;;4995533;28;20116;-78
2022/03/15 08:21:16;;;;;;;32.97;16.58;;;7.30;99.90;;;;;;4995312;28;20477;-77
2022/03/15 08:23:43;;;;;;;29.02;16.42;;;7.30;99.90;;;;;;4995518;28;20374;-77
2022/03/15 08:26:09;;;;;;;34.70;18.25;;;7.40;99.90;;;;;;4977951;28;20050;-78
2022/03/15 08:28:35;;;;;;;28.58;18.17;;;7.50;99.90;;;;;;4977960;28;20054;-77
2022/03/15 08:31:01;;;;;;;26.65;16.77;;;7.50;99.90;;;;;;4995564;28;20069;-78
2022/03/15 08:33:26;;;;;;;26.60;16.42;;;7.70;99.90;;;;;;4995284;28;20039;-78
2022/03/15 08:35:52;;;;;;;24.20;15.65;;;7.70;99.90;;;;;;4995373;28;20038;-77
2022/03/15 08:38:18;;;;;;;30.13;15.52;;;7.80;99.90;;;;;;4995531;28;20034;-77
2022/03/15 08:40:44;;;;;;;28.88;17.23;;;8.00;99.90;;;;;;4997276;28;20408;-76
2022/03/15 08:43:10;;;;;;;28.85;16.83;;;8.10;99.90;;;;;;5013987;28;20461;-77
2022/03/15 08:45:37;;;;;;;30.40;16.80;;;8.20;99.90;;;;;;4994150;28;20078;-78
2022/03/15 08:48:03;;;;;;;26.23;15.52;;;8.40;99.90;;;;;;5010293;28;20060;-77
2022/03/15 08:50:29;;;;;;;28.45;15.57;;;8.60;99.90;;;;;;5014512;28;20425;-78
2022/03/15 08:52:57;;;;;;;26.63;15.55;;;8.60;99.90;;;;;;5014190;28;20478;-77
2022/03/15 08:55:24;;;;;;;30.25;17.00;;;8.70;99.90;;;;;;4997068;28;20480;-78
2022/03/15 08:57:50;;;;;;;22.13;14.07;;;8.80;99.90;;;;;;5014297;28;20046;-77
2022/03/15 09:00:16;;;;;;;26.95;14.45;;;8.90;99.90;;;;;;5014555;28;20107;-78
2022/03/15 09:02:42;;;;;;;22.85;13.90;;;8.90;99.90;;;;;;5014476;28;20045;-78
2022/03/15 09:05:07;;;;;;;26.70;14.18;;;9.00;99.90;;;;;;5014164;28;20044;-80
2022/03/15 09:07:36;;;;;;;24.58;13.00;;;9.20;99.90;;;;;;5014162;28;20117;-80
2022/03/15 09:10:03;;;;;;;22.30;13.15;;;9.20;99.90;;;;;;5014130;28;20417;-78
2022/03/15 09:12:30;;;;;;;23.75;13.60;;;9.40;99.90;;;;;;5014417;28;20056;-78
2022/03/15 09:14:55;;;;;;;21.38;12.88;;;9.60;99.90;;;;;;5014479;28;20038;-78
2022/03/15 09:17:21;;;;;;;20.83;12.57;;;9.80;99.90;;;;;;4996551;28;20125;-79
2022/03/15 09:19:50;;;;;;;22.88;11.45;;;9.80;99.90;;;;;;4996555;28;20052;-79
2022/03/15 09:22:16;;;;;;;19.08;11.82;;;10.00;99.90;;;;;;5014150;28;20041;-77
2022/03/15 09:24:42;;;;;;;24.10;12.68;;;10.10;99.90;;;;;;5014331;28;20045;-81
2022/03/15 09:27:08;;;;;;;21.75;11.98;;;10.30;99.90;;;;;;5014344;28;20111;-80
2022/03/15 09:29:34;;;;;;;21.70;12.40;;;10.50;99.90;;;;;;5013666;28;20061;-81
2022/03/15 09:31:59;;;;;;;22.98;11.60;;;10.60;99.90;;;;;;5013765;28;20239;-79
2022/03/15 09:34:26;;;;;;;19.65;12.23;;;10.70;99.90;;;;;;5014248;28;20583;-79
2022/03/15 09:36:52;;;;;;;24.25;12.80;;;10.70;99.90;;;;;;5014281;28;20046;-79
2022/03/15 09:39:18;;;;;;;21.48;12.48;;;10.90;99.90;;;;;;5014001;28;20099;-79
2022/03/15 09:41:47;;;;;;;29.42;14.52;;;11.00;99.90;;;;;;5014092;28;20041;-79
2022/03/15 09:44:16;;;;;;;26.58;15.55;;;11.00;99.90;;;;;;4996439;28;20050;-79
2022/03/15 09:46:47;;;;;;;29.42;16.45;;;11.10;99.90;;;;;;5014052;28;20045;-79
2022/03/15 09:49:16;;;;;;;30.20;16.30;;;11.20;99.90;;;;;;5014184;28;20042;-79
2022/03/15 09:51:42;;;;;;;24.88;15.70;;;11.40;99.90;;;;;;4996233;28;20049;-79
2022/03/15 09:54:08;;;;;;;26.80;15.75;;;11.40;99.90;;;;;;5013814;28;20104;-79
2022/03/15 09:56:40;;;;;;;30.98;17.08;;;11.40;99.90;;;;;;5013826;28;20446;-79
2022/03/15 09:59:14;;;;;;;33.05;16.85;;;11.50;99.90;;;;;;5014003;28;20074;-79
2022/03/15 10:01:41;;;;;;;27.45;17.50;;;11.60;99.90;;;;;;5013479;28;20038;-79
2022/03/15 10:04:08;;;;;;;30.25;17.90;;;11.60;99.90;;;;;;5013866;28;20045;-79
2022/03/15 10:06:38;;;;;;;30.63;18.35;;;11.50;99.90;;;;;;4995996;28;20119;-80
2022/03/15 10:09:07;;;;;;;31.42;20.67;;;11.40;99.90;;;;;;5014075;28;20053;-79
2022/03/15 10:11:33;;;;;;;31.75;19.67;;;11.20;99.90;;;;;;5013758;28;20040;-79
2022/03/15 10:13:59;;;;;;;37.88;20.00;;;11.10;99.90;;;;;;5013743;28;20088;-79
2022/03/15 10:16:32;;;;;;;38.65;21.70;;;11.10;99.90;;;;;;5013688;28;20096;-79
2022/03/15 10:18:59;;;;;;;36.33;21.10;;;11.00;99.90;;;;;;5013452;28;20500;-79
2022/03/15 10:21:52;;;;;;;31.77;19.35;;;11.10;99.90;;;;;;5013576;28;20041;-79
2022/03/15 10:24:25;;;;;;;36.05;21.52;;;11.00;99.90;;;;;;5003937;28;20050;-80
2022/03/15 10:26:53;;;;;;;34.20;20.35;;;11.00;99.90;;;;;;4996433;28;20046;-80
2022/03/15 10:29:21;;;;;;;33.72;20.42;;;11.10;99.90;;;;;;5013526;28;20061;-80
2022/03/15 10:31:48;;;;;;;34.00;20.80;;;11.10;99.90;;;;;;5013349;28;20112;-80
2022/03/15 10:34:15;;;;;;;31.92;19.65;;;11.10;99.90;;;;;;5013348;28;20483;-79
2022/03/15 10:36:42;;;;;;;35.78;20.35;;;11.00;99.90;;;;;;5013304;28;20057;-80
2022/03/15 10:39:13;;;;;;;33.65;20.48;;;11.00;99.90;;;;;;5013210;28;20382;-79
2022/03/15 10:41:54;;;;;;;30.00;20.30;;;11.00;99.90;;;;;;5013331;28;20042;-79
2022/03/15 10:44:34;;;;;;;31.70;19.38;;;11.10;99.90;;;;;;4995748;28;20042;-79
2022/03/15 10:47:17;;;;;;;30.27;18.98;;;11.10;99.90;;;;;;5013543;28;20049;-79
2022/03/15 10:49:54;;;;;;;31.33;18.75;;;11.10;99.90;;;;;;5013495;28;20128;-79
2022/03/15 10:52:34;;;;;;;31.50;19.73;;;11.10;99.90;;;;;;4995605;28;20438;-79
2022/03/15 10:55:17;;;;;;;31.17;18.83;;;11.10;99.90;;;;;;4995670;28;20045;-79
2022/03/15 10:57:45;;;;;;;28.10;18.20;;;11.00;99.90;;;;;;5013129;28;20125;-79
2022/03/15 11:00:12;;;;;;;30.38;18.40;;;11.20;99.90;;;;;;5013311;28;20038;-79
2022/03/15 11:02:42;;;;;;;29.35;18.73;;;11.30;99.90;;;;;;5012866;28;20050;-79
2022/03/15 11:05:07;;;;;;;32.65;18.92;;;11.40;99.90;;;;;;5013426;28;20099;-79
2022/03/15 11:07:38;;;;;;;25.67;17.48;;;11.50;99.90;;;;;;5013736;28;20045;-78
2022/03/15 11:10:14;;;;;;;33.95;18.55;;;11.60;99.90;;;;;;4999301;28;20054;-78
2022/03/15 11:13:02;;;;;;;31.33;17.90;;;11.70;99.90;;;;;;5016794;28;20050;-78
2022/03/15 11:15:31;;;;;;;31.27;17.65;;;11.80;99.90;;;;;;4999500;28;20523;-83
2022/03/15 11:18:01;;;;;;;25.70;16.98;;;11.80;99.90;;;;;;5016710;28;20049;-82
2022/03/15 11:20:31;;;;;;;27.17;18.33;;;12.00;99.90;;;;;;4999237;28;20049;-82
2022/03/15 11:23:00;;;;;;;28.05;17.80;;;11.90;99.90;;;;;;4998712;28;20069;-80
2022/03/15 11:25:33;;;;;;;29.95;17.92;;;12.00;99.90;;;;;;4998791;28;20050;-80
2022/03/15 11:27:59;;;;;;;;;;;12.20;99.90;;;;;;4999624;28;20045;-81
2022/03/15 11:30:26;;;;;;;29.13;17.50;;;12.20;99.90;;;;;;5016492;28;19922;-81
2022/03/15 11:32:54;;;;;;;26.42;17.67;;;12.30;99.90;;;;;;5016464;28;20033;-81
2022/03/15 11:35:22;;;;;;;26.35;17.33;;;12.30;99.90;;;;;;5016118;28;20057;-81
2022/03/15 11:37:48;;;;;;;31.60;18.75;;;12.20;99.90;;;;;;5016175;28;20560;-80
2022/03/15 11:40:14;;;;;;;29.63;17.38;;;12.30;99.90;;;;;;5016228;28;20042;-81
2022/03/15 11:42:44;;;;;;;24.58;16.20;;;12.40;99.90;;;;;;5016178;28;20389;-80
2022/03/15 11:45:10;;;;;;;27.00;16.80;;;12.30;99.90;;;;;;5015984;28;20046;-80
2022/03/15 11:48:01;;;;;;;30.35;17.50;;;12.20;99.90;;;;;;5015892;28;20044;-80
2022/03/15 11:50:32;;;;;;;27.90;17.67;;;12.20;99.90;;;;;;5016152;28;20130;-80
2022/03/15 11:53:16;;;;;;;26.48;16.20;;;12.10;99.90;;;;;;4998250;28;20488;-80
2022/03/15 11:56:07;;;;;;;30.50;17.77;;;12.10;99.90;;;;;;4998599;28;20046;-81
2022/03/15 11:58:33;;;;;;;27.23;14.95;;;12.20;99.90;;;;;;5015876;28;20482;-81
2022/03/15 12:01:12;;;;;;;23.38;14.15;;;12.30;99.90;;;;;;5015897;28;20030;-81
2022/03/15 12:03:51;;;;;;;19.25;11.48;;;12.30;99.90;;;;;;4998402;28;20404;-81
2022/03/15 12:06:20;;;;;;;18.13;11.13;;;12.40;99.90;;;;;;5015654;28;20081;-81
2022/03/15 12:08:57;;;;;;;20.00;11.98;;;12.50;99.90;;;;;;5015560;28;20088;-81
2022/03/15 12:11:30;;;;;;;19.02;11.20;;;12.40;99.90;;;;;;5015610;28;20049;-80
2022/03/15 12:14:13;;;;;;;19.67;11.23;;;12.40;99.90;;;;;;5015734;28;20054;-80
2022/03/15 12:16:47;;;;;;;19.17;11.45;;;12.30;99.90;;;;;;4998012;28;20513;-80
2022/03/15 12:19:39;;;;;;;19.40;11.70;;;12.20;99.90;;;;;;4996951;28;20049;-80
2022/03/15 12:22:08;;;;;;;17.48;10.48;;;12.20;99.90;;;;;;5014989;28;20424;-80
2022/03/15 12:24:42;;;;;;;14.77;9.20;;;12.10;99.90;;;;;;5015181;28;20180;-80
2022/03/15 12:27:10;;;;;;;14.07;9.43;;;12.00;99.90;;;;;;4998224;28;20060;-80
2022/03/15 12:29:37;;;;;;;18.73;10.65;;;11.90;99.90;;;;;;5014901;28;20145;-80
2022/03/15 12:32:12;;;;;;;17.67;10.30;;;11.90;99.90;;;;;;4997723;28;20046;-80
2022/03/15 12:34:42;;;;;;;22.85;11.25;;;11.80;99.90;;;;;;5015004;28;20057;-80
2022/03/15 12:37:08;;;;;;;16.13;9.23;;;11.80;99.90;;;;;;4998016;28;20038;-80